sensor_id;sensor_type;location;lat;lon;timestamp;P1;durP1;ratioP1;P2;durP2;ratioP2
76850;SDS011;65824;43.726;20.692;2023-05-10T00:00:50;7.90;;;4.55;;
76850;SDS011;65824;43.726;20.692;2023-05-10T00:03:15;7.72;;;4.03;;
76850;SDS011;65824;43.726;20.692;2023-05-10T00:05:41;9.02;;;3.83;;
76850;SDS011;65824;43.726;20.692;2023-05-10T00:08:08;7.03;;;4.30;;
76850;SDS011;65824;43.726;20.692;2023-05-10T00:10:35;6.32;;;3.60;;
76850;SDS011;65824;43.726;20.692;2023-05-10T00:13:01;11.85;;;4.00;;
76850;SDS011;65824;43.726;20.692;2023-05-10T00:15:26;5.90;;;3.72;;
76850;SDS011;65824;43.726;20.692;2023-05-10T00:17:52;6.68;;;4.07;;
76850;SDS011;65824;43.726;20.692;2023-05-10T00:20:17;5.85;;;3.45;;
76850;SDS011;65824;43.726;20.692;2023-05-10T00:22:43;6.82;;;4.18;;
76850;SDS011;65824;43.726;20.692;2023-05-10T00:25:08;5.90;;;3.72;;
76850;SDS011;65824;43.726;20.692;2023-05-10T00:27:34;6.63;;;3.50;;
76850;SDS011;65824;43.726;20.692;2023-05-10T00:30:01;5.25;;;3.42;;
76850;SDS011;65824;43.726;20.692;2023-05-10T00:32:28;6.63;;;3.30;;
76850;SDS011;65824;43.726;20.692;2023-05-10T00:34:53;5.45;;;3.35;;
76850;SDS011;65824;43.726;20.692;2023-05-10T00:37:18;5.65;;;3.40;;
76850;SDS011;65824;43.726;20.692;2023-05-10T00:39:44;8.43;;;3.83;;
76850;SDS011;65824;43.726;20.692;2023-05-10T00:42:09;9.05;;;3.63;;
76850;SDS011;65824;43.726;20.692;2023-05-10T00:44:35;5.00;;;3.35;;
76850;SDS011;65824;43.726;20.692;2023-05-10T00:47:01;5.22;;;3.30;;
76850;SDS011;65824;43.726;20.692;2023-05-10T00:49:27;6.53;;;3.50;;
76850;SDS011;65824;43.726;20.692;2023-05-10T00:51:53;7.30;;;3.45;;
76850;SDS011;65824;43.726;20.692;2023-05-10T00:54:19;6.55;;;2.97;;
76850;SDS011;65824;43.726;20.692;2023-05-10T00:56:44;6.10;;;3.50;;
76850;SDS011;65824;43.726;20.692;2023-05-10T00:59:14;7.07;;;3.30;;
76850;SDS011;65824;43.726;20.692;2023-05-10T01:01:43;5.47;;;3.22;;
76850;SDS011;65824;43.726;20.692;2023-05-10T01:04:10;5.07;;;3.03;;
76850;SDS011;65824;43.726;20.692;2023-05-10T01:06:37;5.75;;;3.15;;
76850;SDS011;65824;43.726;20.692;2023-05-10T01:09:03;5.55;;;3.30;;
76850;SDS011;65824;43.726;20.692;2023-05-10T01:11:29;5.82;;;3.17;;
76850;SDS011;65824;43.726;20.692;2023-05-10T01:13:55;5.90;;;3.40;;
76850;SDS011;65824;43.726;20.692;2023-05-10T01:16:21;6.57;;;3.53;;
76850;SDS011;65824;43.726;20.692;2023-05-10T01:18:47;5.07;;;3.15;;
76850;SDS011;65824;43.726;20.692;2023-05-10T01:24:03;6.57;;;3.55;;
76850;SDS011;65824;43.726;20.692;2023-05-10T01:26:59;5.60;;;3.05;;
76850;SDS011;65824;43.726;20.692;2023-05-10T01:32:38;6.10;;;3.60;;
76850;SDS011;65824;43.726;20.692;2023-05-10T01:35:10;5.30;;;3.35;;
76850;SDS011;65824;43.726;20.692;2023-05-10T01:37:50;5.20;;;3.20;;
76850;SDS011;65824;43.726;20.692;2023-05-10T01:40:23;5.50;;;3.38;;
76850;SDS011;65824;43.726;20.692;2023-05-10T01:43:01;6.03;;;3.30;;
76850;SDS011;65824;43.726;20.692;2023-05-10T01:45:39;5.25;;;3.20;;
76850;SDS011;65824;43.726;20.692;2023-05-10T01:48:10;4.88;;;3.00;;
76850;SDS011;65824;43.726;20.692;2023-05-10T01:50:37;5.88;;;3.30;;
76850;SDS011;65824;43.726;20.692;2023-05-10T01:53:06;5.28;;;3.17;;
76850;SDS011;65824;43.726;20.692;2023-05-10T01:55:33;5.32;;;3.47;;
76850;SDS011;65824;43.726;20.692;2023-05-10T01:58:11;5.40;;;3.20;;
76850;SDS011;65824;43.726;20.692;2023-05-10T02:00:42;4.85;;;3.17;;
76850;SDS011;65824;43.726;20.692;2023-05-10T02:03:08;6.13;;;3.20;;
76850;SDS011;65824;43.726;20.692;2023-05-10T02:05:35;4.93;;;3.05;;
76850;SDS011;65824;43.726;20.692;2023-05-10T02:08:02;4.63;;;2.88;;
76850;SDS011;65824;43.726;20.692;2023-05-10T02:10:30;5.97;;;3.15;;
76850;SDS011;65824;43.726;20.692;2023-05-10T02:12:58;6.75;;;3.28;;
76850;SDS011;65824;43.726;20.692;2023-05-10T02:15:25;5.05;;;3.00;;
76850;SDS011;65824;43.726;20.692;2023-05-10T02:17:52;7.60;;;3.20;;
76850;SDS011;65824;43.726;20.692;2023-05-10T02:20:19;4.65;;;2.90;;
76850;SDS011;65824;43.726;20.692;2023-05-10T02:22:47;6.72;;;3.25;;
76850;SDS011;65824;43.726;20.692;2023-05-10T02:25:14;4.82;;;3.13;;
76850;SDS011;65824;43.726;20.692;2023-05-10T02:27:41;4.53;;;2.92;;
76850;SDS011;65824;43.726;20.692;2023-05-10T02:30:06;7.80;;;3.47;;
76850;SDS011;65824;43.726;20.692;2023-05-10T02:32:32;5.07;;;2.90;;
76850;SDS011;65824;43.726;20.692;2023-05-10T02:34:58;6.25;;;2.90;;
76850;SDS011;65824;43.726;20.692;2023-05-10T02:37:25;4.90;;;2.90;;
76850;SDS011;65824;43.726;20.692;2023-05-10T02:39:53;4.18;;;2.90;;
76850;SDS011;65824;43.726;20.692;2023-05-10T02:42:22;4.70;;;2.50;;
76850;SDS011;65824;43.726;20.692;2023-05-10T02:44:50;4.30;;;2.55;;
76850;SDS011;65824;43.726;20.692;2023-05-10T02:47:17;4.57;;;2.25;;
76850;SDS011;65824;43.726;20.692;2023-05-10T02:49:43;4.68;;;2.47;;
76850;SDS011;65824;43.726;20.692;2023-05-10T02:52:09;4.07;;;2.30;;
76850;SDS011;65824;43.726;20.692;2023-05-10T02:54:43;4.75;;;2.65;;
76850;SDS011;65824;43.726;20.692;2023-05-10T02:57:15;7.80;;;2.47;;
76850;SDS011;65824;43.726;20.692;2023-05-10T02:59:43;5.88;;;2.58;;
76850;SDS011;65824;43.726;20.692;2023-05-10T03:02:10;5.07;;;2.50;;
76850;SDS011;65824;43.726;20.692;2023-05-10T03:04:35;4.13;;;2.17;;
76850;SDS011;65824;43.726;20.692;2023-05-10T03:07:01;4.45;;;2.80;;
76850;SDS011;65824;43.726;20.692;2023-05-10T03:09:27;4.10;;;2.33;;
76850;SDS011;65824;43.726;20.692;2023-05-10T03:12:14;4.18;;;2.50;;
76850;SDS011;65824;43.726;20.692;2023-05-10T03:17:56;4.05;;;2.20;;
76850;SDS011;65824;43.726;20.692;2023-05-10T03:20:25;3.85;;;2.40;;
76850;SDS011;65824;43.726;20.692;2023-05-10T03:22:59;4.43;;;2.30;;
76850;SDS011;65824;43.726;20.692;2023-05-10T03:25:27;4.20;;;2.25;;
76850;SDS011;65824;43.726;20.692;2023-05-10T03:27:54;4.70;;;2.67;;
76850;SDS011;65824;43.726;20.692;2023-05-10T03:30:23;4.30;;;2.40;;
76850;SDS011;65824;43.726;20.692;2023-05-10T03:32:50;5.35;;;2.40;;
76850;SDS011;65824;43.726;20.692;2023-05-10T03:35:16;4.38;;;2.63;;
76850;SDS011;65824;43.726;20.692;2023-05-10T03:37:42;4.40;;;2.40;;
76850;SDS011;65824;43.726;20.692;2023-05-10T03:40:08;4.47;;;2.30;;
76850;SDS011;65824;43.726;20.692;2023-05-10T03:42:34;4.72;;;2.42;;
76850;SDS011;65824;43.726;20.692;2023-05-10T03:45:01;4.85;;;2.65;;
76850;SDS011;65824;43.726;20.692;2023-05-10T03:47:27;5.25;;;2.17;;
76850;SDS011;65824;43.726;20.692;2023-05-10T03:49:52;5.07;;;2.60;;
76850;SDS011;65824;43.726;20.692;2023-05-10T03:52:19;4.72;;;2.55;;
76850;SDS011;65824;43.726;20.692;2023-05-10T03:54:44;4.68;;;2.50;;
76850;SDS011;65824;43.726;20.692;2023-05-10T03:57:11;5.78;;;2.70;;
76850;SDS011;65824;43.726;20.692;2023-05-10T03:59:36;5.20;;;2.65;;
76850;SDS011;65824;43.726;20.692;2023-05-10T04:02:02;5.53;;;2.85;;
76850;SDS011;65824;43.726;20.692;2023-05-10T04:04:28;5.60;;;2.78;;
76850;SDS011;65824;43.726;20.692;2023-05-10T04:06:54;4.90;;;2.58;;
76850;SDS011;65824;43.726;20.692;2023-05-10T04:09:19;5.40;;;3.15;;
76850;SDS011;65824;43.726;20.692;2023-05-10T04:11:46;4.88;;;2.78;;
76850;SDS011;65824;43.726;20.692;2023-05-10T04:14:11;6.03;;;3.10;;
76850;SDS011;65824;43.726;20.692;2023-05-10T04:16:37;5.80;;;3.10;;
76850;SDS011;65824;43.726;20.692;2023-05-10T04:19:02;7.95;;;3.20;;
76850;SDS011;65824;43.726;20.692;2023-05-10T04:21:28;5.80;;;3.05;;
76850;SDS011;65824;43.726;20.692;2023-05-10T04:23:54;8.38;;;3.13;;
76850;SDS011;65824;43.726;20.692;2023-05-10T04:26:20;4.45;;;2.70;;
76850;SDS011;65824;43.726;20.692;2023-05-10T04:28:46;4.72;;;2.65;;
76850;SDS011;65824;43.726;20.692;2023-05-10T04:31:12;5.47;;;2.50;;
76850;SDS011;65824;43.726;20.692;2023-05-10T04:33:37;4.65;;;2.80;;
76850;SDS011;65824;43.726;20.692;2023-05-10T04:36:03;4.35;;;2.25;;
76850;SDS011;65824;43.726;20.692;2023-05-10T04:38:29;7.35;;;2.80;;
76850;SDS011;65824;43.726;20.692;2023-05-10T04:41:03;4.97;;;2.95;;
76850;SDS011;65824;43.726;20.692;2023-05-10T04:43:35;5.75;;;3.00;;
76850;SDS011;65824;43.726;20.692;2023-05-10T04:46:01;4.45;;;2.30;;
76850;SDS011;65824;43.726;20.692;2023-05-10T04:48:27;5.05;;;2.90;;
76850;SDS011;65824;43.726;20.692;2023-05-10T04:50:52;5.45;;;2.75;;
76850;SDS011;65824;43.726;20.692;2023-05-10T04:53:18;5.60;;;2.63;;
76850;SDS011;65824;43.726;20.692;2023-05-10T04:55:49;4.25;;;2.45;;
76850;SDS011;65824;43.726;20.692;2023-05-10T04:58:18;6.63;;;2.60;;
76850;SDS011;65824;43.726;20.692;2023-05-10T05:00:43;6.15;;;3.15;;
76850;SDS011;65824;43.726;20.692;2023-05-10T05:03:09;4.78;;;2.55;;
76850;SDS011;65824;43.726;20.692;2023-05-10T05:05:35;5.65;;;2.33;;
76850;SDS011;65824;43.726;20.692;2023-05-10T05:08:03;4.95;;;2.50;;
76850;SDS011;65824;43.726;20.692;2023-05-10T05:10:29;5.15;;;2.25;;
76850;SDS011;65824;43.726;20.692;2023-05-10T05:12:55;4.03;;;2.20;;
76850;SDS011;65824;43.726;20.692;2023-05-10T05:15:20;5.13;;;2.40;;
76850;SDS011;65824;43.726;20.692;2023-05-10T05:17:45;6.65;;;3.00;;
76850;SDS011;65824;43.726;20.692;2023-05-10T05:20:12;7.57;;;2.42;;
76850;SDS011;65824;43.726;20.692;2023-05-10T05:22:38;4.80;;;2.55;;
76850;SDS011;65824;43.726;20.692;2023-05-10T05:25:04;5.38;;;2.58;;
76850;SDS011;65824;43.726;20.692;2023-05-10T05:27:30;5.40;;;2.78;;
76850;SDS011;65824;43.726;20.692;2023-05-10T05:29:56;5.10;;;2.65;;
76850;SDS011;65824;43.726;20.692;2023-05-10T05:32:22;5.68;;;3.00;;
76850;SDS011;65824;43.726;20.692;2023-05-10T05:34:48;6.57;;;3.47;;
76850;SDS011;65824;43.726;20.692;2023-05-10T05:37:14;6.75;;;2.80;;
76850;SDS011;65824;43.726;20.692;2023-05-10T05:39:41;5.20;;;2.60;;
76850;SDS011;65824;43.726;20.692;2023-05-10T05:42:07;5.28;;;2.95;;
76850;SDS011;65824;43.726;20.692;2023-05-10T05:44:34;7.72;;;2.83;;
76850;SDS011;65824;43.726;20.692;2023-05-10T05:47:00;4.50;;;2.70;;
76850;SDS011;65824;43.726;20.692;2023-05-10T05:49:25;5.05;;;2.67;;
76850;SDS011;65824;43.726;20.692;2023-05-10T05:51:51;6.57;;;3.08;;
76850;SDS011;65824;43.726;20.692;2023-05-10T05:54:19;4.85;;;2.70;;
76850;SDS011;65824;43.726;20.692;2023-05-10T05:56:45;6.63;;;3.20;;
76850;SDS011;65824;43.726;20.692;2023-05-10T05:59:12;7.13;;;3.33;;
76850;SDS011;65824;43.726;20.692;2023-05-10T06:01:37;7.90;;;3.05;;
76850;SDS011;65824;43.726;20.692;2023-05-10T06:04:03;7.43;;;3.10;;
76850;SDS011;65824;43.726;20.692;2023-05-10T06:06:28;6.22;;;3.38;;
76850;SDS011;65824;43.726;20.692;2023-05-10T06:08:55;5.70;;;2.95;;
76850;SDS011;65824;43.726;20.692;2023-05-10T06:11:20;6.40;;;2.78;;
76850;SDS011;65824;43.726;20.692;2023-05-10T06:13:46;5.72;;;2.63;;
76850;SDS011;65824;43.726;20.692;2023-05-10T06:16:12;6.57;;;2.70;;
76850;SDS011;65824;43.726;20.692;2023-05-10T06:18:38;5.10;;;2.63;;
76850;SDS011;65824;43.726;20.692;2023-05-10T06:21:04;5.28;;;2.70;;
76850;SDS011;65824;43.726;20.692;2023-05-10T06:23:31;4.88;;;2.70;;
76850;SDS011;65824;43.726;20.692;2023-05-10T06:25:58;5.28;;;2.63;;
76850;SDS011;65824;43.726;20.692;2023-05-10T06:28:23;6.63;;;3.17;;
76850;SDS011;65824;43.726;20.692;2023-05-10T06:30:50;8.18;;;3.10;;
76850;SDS011;65824;43.726;20.692;2023-05-10T06:33:15;5.28;;;2.88;;
76850;SDS011;65824;43.726;20.692;2023-05-10T06:35:46;6.60;;;2.50;;
76850;SDS011;65824;43.726;20.692;2023-05-10T06:38:12;6.10;;;2.90;;
76850;SDS011;65824;43.726;20.692;2023-05-10T06:40:41;7.18;;;3.55;;
76850;SDS011;65824;43.726;20.692;2023-05-10T06:43:07;5.22;;;2.65;;
76850;SDS011;65824;43.726;20.692;2023-05-10T06:45:34;5.97;;;2.83;;
76850;SDS011;65824;43.726;20.692;2023-05-10T06:47:59;8.43;;;3.10;;
76850;SDS011;65824;43.726;20.692;2023-05-10T06:50:27;5.40;;;2.63;;
76850;SDS011;65824;43.726;20.692;2023-05-10T06:52:53;6.03;;;3.08;;
76850;SDS011;65824;43.726;20.692;2023-05-10T06:55:19;5.75;;;3.28;;
76850;SDS011;65824;43.726;20.692;2023-05-10T06:57:44;6.63;;;3.30;;
76850;SDS011;65824;43.726;20.692;2023-05-10T07:00:10;4.70;;;2.90;;
76850;SDS011;65824;43.726;20.692;2023-05-10T07:02:36;6.55;;;2.90;;
76850;SDS011;65824;43.726;20.692;2023-05-10T07:05:02;5.22;;;3.03;;
76850;SDS011;65824;43.726;20.692;2023-05-10T07:07:28;5.82;;;3.00;;
76850;SDS011;65824;43.726;20.692;2023-05-10T07:09:53;5.60;;;2.55;;
76850;SDS011;65824;43.726;20.692;2023-05-10T07:12:19;6.57;;;2.90;;
76850;SDS011;65824;43.726;20.692;2023-05-10T07:14:45;5.95;;;2.90;;
76850;SDS011;65824;43.726;20.692;2023-05-10T07:17:10;6.15;;;2.88;;
76850;SDS011;65824;43.726;20.692;2023-05-10T07:19:36;10.13;;;3.30;;
76850;SDS011;65824;43.726;20.692;2023-05-10T07:22:01;6.78;;;3.20;;
76850;SDS011;65824;43.726;20.692;2023-05-10T07:24:29;4.88;;;3.03;;
76850;SDS011;65824;43.726;20.692;2023-05-10T07:26:56;6.38;;;3.00;;
76850;SDS011;65824;43.726;20.692;2023-05-10T07:29:21;5.80;;;3.40;;
76850;SDS011;65824;43.726;20.692;2023-05-10T07:31:47;5.82;;;3.40;;
76850;SDS011;65824;43.726;20.692;2023-05-10T07:34:13;6.38;;;3.45;;
76850;SDS011;65824;43.726;20.692;2023-05-10T07:36:38;6.03;;;3.10;;
76850;SDS011;65824;43.726;20.692;2023-05-10T07:39:05;5.90;;;2.80;;
76850;SDS011;65824;43.726;20.692;2023-05-10T07:41:32;5.45;;;2.60;;
76850;SDS011;65824;43.726;20.692;2023-05-10T07:44:02;6.75;;;3.20;;
76850;SDS011;65824;43.726;20.692;2023-05-10T07:46:28;5.05;;;2.85;;
76850;SDS011;65824;43.726;20.692;2023-05-10T07:48:55;4.82;;;2.60;;
76850;SDS011;65824;43.726;20.692;2023-05-10T07:51:22;5.80;;;2.85;;
76850;SDS011;65824;43.726;20.692;2023-05-10T07:53:47;4.47;;;2.60;;
76850;SDS011;65824;43.726;20.692;2023-05-10T07:56:23;5.57;;;3.03;;
76850;SDS011;65824;43.726;20.692;2023-05-10T07:58:52;6.32;;;2.83;;
76850;SDS011;65824;43.726;20.692;2023-05-10T08:01:24;4.55;;;2.92;;
76850;SDS011;65824;43.726;20.692;2023-05-10T08:03:49;5.95;;;2.97;;
76850;SDS011;65824;43.726;20.692;2023-05-10T08:06:17;4.70;;;2.70;;
76850;SDS011;65824;43.726;20.692;2023-05-10T08:08:43;6.30;;;2.92;;
76850;SDS011;65824;43.726;20.692;2023-05-10T08:11:17;5.40;;;2.88;;
76850;SDS011;65824;43.726;20.692;2023-05-10T08:13:43;5.72;;;3.05;;
76850;SDS011;65824;43.726;20.692;2023-05-10T08:16:10;4.70;;;2.80;;
76850;SDS011;65824;43.726;20.692;2023-05-10T08:18:36;7.70;;;3.25;;
76850;SDS011;65824;43.726;20.692;2023-05-10T08:21:02;5.30;;;2.90;;
76850;SDS011;65824;43.726;20.692;2023-05-10T08:23:29;6.15;;;2.92;;
76850;SDS011;65824;43.726;20.692;2023-05-10T08:25:54;5.35;;;2.85;;
76850;SDS011;65824;43.726;20.692;2023-05-10T08:28:20;6.65;;;2.85;;
76850;SDS011;65824;43.726;20.692;2023-05-10T08:30:49;5.55;;;2.40;;
76850;SDS011;65824;43.726;20.692;2023-05-10T08:33:15;7.70;;;2.70;;
76850;SDS011;65824;43.726;20.692;2023-05-10T08:35:42;7.75;;;3.15;;
76850;SDS011;65824;43.726;20.692;2023-05-10T08:38:08;4.95;;;2.80;;
76850;SDS011;65824;43.726;20.692;2023-05-10T08:40:33;5.85;;;2.72;;
76850;SDS011;65824;43.726;20.692;2023-05-10T08:45:38;5.32;;;2.50;;
76850;SDS011;65824;43.726;20.692;2023-05-10T08:48:05;6.20;;;2.47;;
76850;SDS011;65824;43.726;20.692;2023-05-10T08:50:31;5.68;;;2.72;;
76850;SDS011;65824;43.726;20.692;2023-05-10T08:52:59;5.03;;;2.65;;
76850;SDS011;65824;43.726;20.692;2023-05-10T08:55:26;5.28;;;2.60;;
76850;SDS011;65824;43.726;20.692;2023-05-10T08:57:53;10.00;;;2.80;;
76850;SDS011;65824;43.726;20.692;2023-05-10T09:00:19;6.35;;;2.80;;
76850;SDS011;65824;43.726;20.692;2023-05-10T09:02:45;4.55;;;2.78;;
76850;SDS011;65824;43.726;20.692;2023-05-10T09:05:11;5.50;;;2.78;;
76850;SDS011;65824;43.726;20.692;2023-05-10T09:07:37;6.25;;;3.22;;
76850;SDS011;65824;43.726;20.692;2023-05-10T09:10:08;5.93;;;3.00;;
76850;SDS011;65824;43.726;20.692;2023-05-10T09:12:35;7.30;;;3.00;;
76850;SDS011;65824;43.726;20.692;2023-05-10T09:15:02;5.18;;;2.63;;
76850;SDS011;65824;43.726;20.692;2023-05-10T09:17:29;5.57;;;3.03;;
76850;SDS011;65824;43.726;20.692;2023-05-10T09:20:01;5.30;;;2.75;;
76850;SDS011;65824;43.726;20.692;2023-05-10T09:22:29;4.95;;;2.88;;
76850;SDS011;65824;43.726;20.692;2023-05-10T09:25:11;5.55;;;2.60;;
76850;SDS011;65824;43.726;20.692;2023-05-10T09:27:38;5.75;;;3.00;;
76850;SDS011;65824;43.726;20.692;2023-05-10T09:30:05;4.93;;;2.80;;
76850;SDS011;65824;43.726;20.692;2023-05-10T09:32:38;4.25;;;2.45;;
76850;SDS011;65824;43.726;20.692;2023-05-10T09:35:08;4.85;;;2.95;;
76850;SDS011;65824;43.726;20.692;2023-05-10T09:37:41;16.15;;;3.63;;
76850;SDS011;65824;43.726;20.692;2023-05-10T09:40:13;4.68;;;2.75;;
76850;SDS011;65824;43.726;20.692;2023-05-10T09:42:41;6.05;;;3.05;;
76850;SDS011;65824;43.726;20.692;2023-05-10T09:45:08;7.07;;;3.40;;
76850;SDS011;65824;43.726;20.692;2023-05-10T09:47:35;5.75;;;2.92;;
76850;SDS011;65824;43.726;20.692;2023-05-10T09:50:01;5.68;;;2.95;;
76850;SDS011;65824;43.726;20.692;2023-05-10T09:52:31;5.95;;;3.58;;
76850;SDS011;65824;43.726;20.692;2023-05-10T09:55:13;6.43;;;3.10;;
76850;SDS011;65824;43.726;20.692;2023-05-10T09:57:39;6.03;;;3.00;;
76850;SDS011;65824;43.726;20.692;2023-05-10T10:00:06;6.78;;;3.20;;
76850;SDS011;65824;43.726;20.692;2023-05-10T10:02:32;5.43;;;2.83;;
76850;SDS011;65824;43.726;20.692;2023-05-10T10:04:59;6.53;;;3.50;;
76850;SDS011;65824;43.726;20.692;2023-05-10T10:07:26;5.03;;;3.10;;
76850;SDS011;65824;43.726;20.692;2023-05-10T10:09:51;8.70;;;3.33;;
76850;SDS011;65824;43.726;20.692;2023-05-10T10:12:20;7.55;;;3.40;;
76850;SDS011;65824;43.726;20.692;2023-05-10T10:14:49;5.30;;;3.00;;
76850;SDS011;65824;43.726;20.692;2023-05-10T10:17:19;10.70;;;3.25;;
76850;SDS011;65824;43.726;20.692;2023-05-10T10:19:45;6.30;;;3.20;;
76850;SDS011;65824;43.726;20.692;2023-05-10T10:22:12;5.32;;;3.05;;
76850;SDS011;65824;43.726;20.692;2023-05-10T10:24:38;7.10;;;3.60;;
76850;SDS011;65824;43.726;20.692;2023-05-10T10:27:27;7.32;;;3.30;;
76850;SDS011;65824;43.726;20.692;2023-05-10T10:30:21;7.78;;;3.35;;
76850;SDS011;65824;43.726;20.692;2023-05-10T10:35:54;5.53;;;3.10;;
76850;SDS011;65824;43.726;20.692;2023-05-10T10:38:20;8.30;;;3.75;;
76850;SDS011;65824;43.726;20.692;2023-05-10T10:40:47;6.35;;;3.70;;
76850;SDS011;65824;43.726;20.692;2023-05-10T10:43:22;7.75;;;3.75;;
76850;SDS011;65824;43.726;20.692;2023-05-10T10:49:08;7.22;;;4.28;;
76850;SDS011;65824;43.726;20.692;2023-05-10T10:51:37;6.93;;;3.65;;
76850;SDS011;65824;43.726;20.692;2023-05-10T10:54:11;6.75;;;3.30;;
76850;SDS011;65824;43.726;20.692;2023-05-10T10:56:37;5.38;;;3.30;;
76850;SDS011;65824;43.726;20.692;2023-05-10T10:59:02;8.55;;;3.50;;
76850;SDS011;65824;43.726;20.692;2023-05-10T11:01:32;5.70;;;3.58;;
76850;SDS011;65824;43.726;20.692;2023-05-10T11:04:19;6.40;;;3.33;;
76850;SDS011;65824;43.726;20.692;2023-05-10T11:06:45;6.47;;;3.65;;
76850;SDS011;65824;43.726;20.692;2023-05-10T11:09:11;7.22;;;3.92;;
76850;SDS011;65824;43.726;20.692;2023-05-10T11:11:51;7.93;;;4.20;;
76850;SDS011;65824;43.726;20.692;2023-05-10T11:14:32;13.43;;;5.13;;
76850;SDS011;65824;43.726;20.692;2023-05-10T11:16:58;6.60;;;3.50;;
76850;SDS011;65824;43.726;20.692;2023-05-10T11:19:24;7.03;;;3.60;;
76850;SDS011;65824;43.726;20.692;2023-05-10T11:22:15;5.95;;;3.10;;
76850;SDS011;65824;43.726;20.692;2023-05-10T11:24:40;7.68;;;3.28;;
76850;SDS011;65824;43.726;20.692;2023-05-10T11:27:08;9.13;;;3.53;;
76850;SDS011;65824;43.726;20.692;2023-05-10T11:29:34;5.57;;;3.13;;
76850;SDS011;65824;43.726;20.692;2023-05-10T11:32:00;9.18;;;3.55;;
76850;SDS011;65824;43.726;20.692;2023-05-10T11:34:28;6.55;;;3.33;;
76850;SDS011;65824;43.726;20.692;2023-05-10T11:37:03;7.25;;;3.22;;
76850;SDS011;65824;43.726;20.692;2023-05-10T11:39:30;7.18;;;4.00;;
76850;SDS011;65824;43.726;20.692;2023-05-10T11:41:56;8.50;;;4.05;;
76850;SDS011;65824;43.726;20.692;2023-05-10T11:44:23;8.45;;;4.07;;
76850;SDS011;65824;43.726;20.692;2023-05-10T11:46:54;9.13;;;3.83;;
76850;SDS011;65824;43.726;20.692;2023-05-10T11:49:19;7.10;;;3.33;;
76850;SDS011;65824;43.726;20.692;2023-05-10T11:51:46;6.68;;;3.63;;
76850;SDS011;65824;43.726;20.692;2023-05-10T11:54:12;6.45;;;3.45;;
76850;SDS011;65824;43.726;20.692;2023-05-10T11:56:40;5.90;;;3.72;;
76850;SDS011;65824;43.726;20.692;2023-05-10T11:59:07;10.43;;;4.57;;
76850;SDS011;65824;43.726;20.692;2023-05-10T12:01:33;6.75;;;3.30;;
76850;SDS011;65824;43.726;20.692;2023-05-10T12:04:00;7.10;;;3.70;;
76850;SDS011;65824;43.726;20.692;2023-05-10T12:06:29;6.63;;;3.90;;
76850;SDS011;65824;43.726;20.692;2023-05-10T12:08:57;6.18;;;3.65;;
76850;SDS011;65824;43.726;20.692;2023-05-10T12:11:24;6.53;;;3.53;;
76850;SDS011;65824;43.726;20.692;2023-05-10T12:13:50;6.63;;;3.75;;
76850;SDS011;65824;43.726;20.692;2023-05-10T12:16:17;6.60;;;3.58;;
76850;SDS011;65824;43.726;20.692;2023-05-10T12:18:44;9.50;;;3.67;;
76850;SDS011;65824;43.726;20.692;2023-05-10T12:21:11;8.75;;;3.75;;
76850;SDS011;65824;43.726;20.692;2023-05-10T12:23:37;5.68;;;3.17;;
76850;SDS011;65824;43.726;20.692;2023-05-10T12:26:03;6.57;;;3.72;;
76850;SDS011;65824;43.726;20.692;2023-05-10T12:28:32;6.55;;;3.33;;
76850;SDS011;65824;43.726;20.692;2023-05-10T12:31:01;7.97;;;3.58;;
76850;SDS011;65824;43.726;20.692;2023-05-10T12:33:41;9.75;;;3.25;;
76850;SDS011;65824;43.726;20.692;2023-05-10T12:36:08;5.57;;;3.22;;
76850;SDS011;65824;43.726;20.692;2023-05-10T12:41:03;6.90;;;3.88;;
76850;SDS011;65824;43.726;20.692;2023-05-10T12:43:30;7.97;;;3.60;;
76850;SDS011;65824;43.726;20.692;2023-05-10T12:45:56;11.43;;;3.65;;
76850;SDS011;65824;43.726;20.692;2023-05-10T12:48:22;6.75;;;4.00;;
76850;SDS011;65824;43.726;20.692;2023-05-10T12:50:48;7.50;;;3.65;;
76850;SDS011;65824;43.726;20.692;2023-05-10T12:53:14;7.55;;;3.50;;
76850;SDS011;65824;43.726;20.692;2023-05-10T12:55:43;7.05;;;2.90;;
76850;SDS011;65824;43.726;20.692;2023-05-10T12:58:09;5.95;;;3.40;;
76850;SDS011;65824;43.726;20.692;2023-05-10T13:00:35;6.40;;;3.50;;
76850;SDS011;65824;43.726;20.692;2023-05-10T13:03:03;4.47;;;2.83;;
76850;SDS011;65824;43.726;20.692;2023-05-10T13:05:32;8.75;;;3.88;;
76850;SDS011;65824;43.726;20.692;2023-05-10T13:07:58;7.70;;;3.60;;
76850;SDS011;65824;43.726;20.692;2023-05-10T13:10:29;6.35;;;3.70;;
76850;SDS011;65824;43.726;20.692;2023-05-10T13:12:55;6.95;;;3.30;;
76850;SDS011;65824;43.726;20.692;2023-05-10T13:15:21;6.75;;;3.67;;
76850;SDS011;65824;43.726;20.692;2023-05-10T13:17:49;8.23;;;3.85;;
76850;SDS011;65824;43.726;20.692;2023-05-10T13:20:14;7.85;;;3.53;;
76850;SDS011;65824;43.726;20.692;2023-05-10T13:22:40;8.55;;;3.70;;
76850;SDS011;65824;43.726;20.692;2023-05-10T13:25:07;7.20;;;3.45;;
76850;SDS011;65824;43.726;20.692;2023-05-10T13:27:33;7.35;;;3.28;;
76850;SDS011;65824;43.726;20.692;2023-05-10T13:29:59;8.35;;;3.90;;
76850;SDS011;65824;43.726;20.692;2023-05-10T13:32:25;7.43;;;4.10;;
76850;SDS011;65824;43.726;20.692;2023-05-10T13:34:57;6.68;;;3.67;;
76850;SDS011;65824;43.726;20.692;2023-05-10T13:37:22;6.43;;;3.33;;
76850;SDS011;65824;43.726;20.692;2023-05-10T13:39:48;7.18;;;3.80;;
76850;SDS011;65824;43.726;20.692;2023-05-10T13:42:14;7.25;;;3.50;;
76850;SDS011;65824;43.726;20.692;2023-05-10T13:44:39;6.30;;;3.20;;
76850;SDS011;65824;43.726;20.692;2023-05-10T13:47:05;9.50;;;4.25;;
76850;SDS011;65824;43.726;20.692;2023-05-10T13:49:32;6.82;;;3.75;;
76850;SDS011;65824;43.726;20.692;2023-05-10T13:51:59;5.70;;;3.55;;
76850;SDS011;65824;43.726;20.692;2023-05-10T13:54:30;7.18;;;3.53;;
76850;SDS011;65824;43.726;20.692;2023-05-10T13:56:56;6.75;;;3.55;;
76850;SDS011;65824;43.726;20.692;2023-05-10T13:59:22;9.43;;;3.78;;
76850;SDS011;65824;43.726;20.692;2023-05-10T14:01:48;5.63;;;3.60;;
76850;SDS011;65824;43.726;20.692;2023-05-10T14:04:14;7.03;;;3.95;;
76850;SDS011;65824;43.726;20.692;2023-05-10T14:06:39;9.07;;;4.10;;
76850;SDS011;65824;43.726;20.692;2023-05-10T14:09:05;8.70;;;3.78;;
76850;SDS011;65824;43.726;20.692;2023-05-10T14:11:31;7.15;;;3.28;;
76850;SDS011;65824;43.726;20.692;2023-05-10T14:13:57;5.82;;;3.67;;
76850;SDS011;65824;43.726;20.692;2023-05-10T14:16:22;7.88;;;3.80;;
76850;SDS011;65824;43.726;20.692;2023-05-10T14:18:51;6.57;;;3.35;;
76850;SDS011;65824;43.726;20.692;2023-05-10T14:21:16;7.15;;;3.67;;
76850;SDS011;65824;43.726;20.692;2023-05-10T14:23:42;7.28;;;3.85;;
76850;SDS011;65824;43.726;20.692;2023-05-10T14:26:08;7.07;;;3.70;;
76850;SDS011;65824;43.726;20.692;2023-05-10T14:28:34;9.18;;;3.95;;
76850;SDS011;65824;43.726;20.692;2023-05-10T14:30:59;6.82;;;3.58;;
76850;SDS011;65824;43.726;20.692;2023-05-10T14:33:25;7.65;;;4.00;;
76850;SDS011;65824;43.726;20.692;2023-05-10T14:35:51;8.73;;;4.15;;
76850;SDS011;65824;43.726;20.692;2023-05-10T14:38:17;7.10;;;3.90;;
76850;SDS011;65824;43.726;20.692;2023-05-10T14:40:44;7.47;;;3.60;;
76850;SDS011;65824;43.726;20.692;2023-05-10T14:43:12;8.65;;;4.57;;
76850;SDS011;65824;43.726;20.692;2023-05-10T14:45:40;9.48;;;4.30;;
76850;SDS011;65824;43.726;20.692;2023-05-10T14:48:06;6.55;;;4.38;;
76850;SDS011;65824;43.726;20.692;2023-05-10T14:50:36;7.78;;;4.20;;
76850;SDS011;65824;43.726;20.692;2023-05-10T14:53:01;6.65;;;4.05;;
76850;SDS011;65824;43.726;20.692;2023-05-10T14:55:32;9.23;;;4.30;;